Time;durP1;ratioP1;P1;durP2;ratioP2;P2;SDS_P1;SDS_P2;PMS_P1;PMS_P2;Temp;Humidity;BMP_temperature;BMP_pressure;BME280_temperature;BME280_humidity;BME280_pressure;Samples;Min_cycle;Max_cycle;Signal;HPM_P1;HPM_P2
2023/12/02 00:01:40;;;;;;;34.07;20.93;;;;;;;-3.01;100.00;100595.53;10155047;29;20127;-83
2023/12/02 00:06:41;;;;;;;40.27;24.50;;;;;;;-3.01;100.00;100592.97;10159565;29;20036;-84
2023/12/02 00:11:42;;;;;;;43.70;26.63;;;;;;;-3.04;100.00;100596.91;10152465;29;20523;-83
2023/12/02 00:16:42;;;;;;;39.90;22.57;;;;;;;-3.14;100.00;100601.13;10143565;29;20047;-83
2023/12/02 00:21:43;;;;;;;36.80;22.47;;;;;;;-3.17;100.00;100605.94;10131731;29;20044;-83
2023/12/02 00:26:43;;;;;;;40.13;21.93;;;;;;;-3.06;100.00;100606.97;10146413;29;20133;-84
2023/12/02 00:31:44;;;;;;;36.80;23.10;;;;;;;-3.01;100.00;100608.34;10146326;29;20115;-83
2023/12/02 00:36:48;;;;;;;35.20;20.97;;;;;;;-3.07;100.00;100612.84;10144072;29;20432;-82
2023/12/02 00:41:49;;;;;;;36.60;22.23;;;;;;;-3.10;100.00;100607.44;10155910;29;20127;-83
2023/12/02 00:46:50;;;;;;;33.55;20.40;;;;;;;-3.14;100.00;100613.00;10160176;29;20043;-83
2023/12/02 00:51:50;;;;;;;33.70;19.43;;;;;;;-3.14;100.00;100607.88;10164230;29;20040;-83
2023/12/02 00:56:51;;;;;;;39.27;21.37;;;;;;;-3.17;100.00;100615.28;10152968;29;20071;-83
2023/12/02 01:01:51;;;;;;;31.67;18.73;;;;;;;-3.17;100.00;100615.28;10149459;29;20550;-83
2023/12/02 01:06:52;;;;;;;25.67;15.37;;;;;;;-3.18;100.00;100626.25;10143171;29;20058;-84
2023/12/02 01:11:52;;;;;;;33.27;18.97;;;;;;;-3.28;100.00;100604.88;10150511;29;20135;-82
2023/12/02 01:16:53;;;;;;;28.77;18.43;;;;;;;-3.41;100.00;100619.78;10163703;29;20119;-82
2023/12/02 01:21:54;;;;;;;28.87;19.80;;;;;;;-3.44;100.00;100617.84;10154023;29;20260;-83
2023/12/02 01:26:54;;;;;;;31.87;21.57;;;;;;;-3.31;100.00;100617.38;10138605;29;20571;-83
2023/12/02 01:31:55;;;;;;;32.07;19.47;;;;;;;-3.16;100.00;100620.56;10151808;29;20059;-83
2023/12/02 01:36:55;;;;;;;33.03;19.23;;;;;;;-3.14;100.00;100626.72;10147435;29;20040;-83
2023/12/02 01:41:56;;;;;;;35.43;24.53;;;;;;;-3.15;100.00;100621.44;10151559;29;20036;-84
2023/12/02 01:46:56;;;;;;;33.40;18.17;;;;;;;-3.13;100.00;100628.53;10130621;29;20135;-83
2023/12/02 01:51:57;;;;;;;40.53;21.17;;;;;;;-3.17;100.00;100640.88;10125390;29;20044;-83
2023/12/02 01:56:57;;;;;;;21.17;13.50;;;;;;;-3.17;100.00;100644.34;10150605;29;20048;-84
2023/12/02 02:01:58;;;;;;;35.30;19.20;;;;;;;-3.22;100.00;100644.63;10130395;29;20161;-83
2023/12/02 02:06:58;;;;;;;31.70;19.03;;;;;;;-3.23;100.00;100655.63;10139539;29;20488;-83
2023/12/02 02:11:58;;;;;;;32.40;18.77;;;;;;;-3.25;100.00;100653.81;10134487;29;20044;-83
2023/12/02 02:16:59;;;;;;;30.17;19.60;;;;;;;-3.23;100.00;100646.31;10150036;29;20043;-83
2023/12/02 02:21:59;;;;;;;28.97;15.57;;;;;;;-3.25;100.00;100651.25;10147156;29;20415;-83
2023/12/02 02:27:00;;;;;;;32.87;17.90;;;;;;;-3.28;100.00;100662.88;10140412;29;20044;-83
2023/12/02 02:32:01;;;;;;;32.37;19.90;;;;;;;-3.25;100.00;100660.63;10151894;29;20048;-83
2023/12/02 02:37:01;;;;;;;34.10;18.70;;;;;;;-3.37;100.00;100665.41;10138767;29;20044;-82
2023/12/02 02:42:06;;;;;;;30.37;17.23;;;;;;;-3.31;100.00;100672.81;10134516;29;20132;-82
2023/12/02 02:47:06;;;;;;;34.00;19.02;;;;;;;-3.22;100.00;100672.78;10142558;29;20044;-83
2023/12/02 02:52:07;;;;;;;32.43;19.60;;;;;;;-3.20;100.00;100672.22;10143257;29;20491;-83
2023/12/02 02:57:07;;;;;;;28.67;16.23;;;;;;;-3.22;100.00;100676.28;10145238;29;20047;-84
2023/12/02 03:02:08;;;;;;;28.50;17.20;;;;;;;-3.27;100.00;100670.69;10141208;29;20052;-84
2023/12/02 03:07:08;;;;;;;28.23;17.87;;;;;;;-3.28;100.00;100680.78;10142582;29;20111;-84
2023/12/02 03:12:10;;;;;;;22.57;12.77;;;;;;;-3.29;100.00;100682.44;10145618;29;20071;-83
2023/12/02 03:17:10;;;;;;;29.83;17.38;;;;;;;-3.26;100.00;100686.97;10137875;29;20401;-83
2023/12/02 03:22:11;;;;;;;30.93;18.27;;;;;;;-3.25;100.00;100693.88;10166828;29;20052;-84
2023/12/02 03:27:11;;;;;;;31.50;19.30;;;;;;;-3.28;100.00;100698.72;10139951;29;20492;-83
2023/12/02 03:32:12;;;;;;;28.43;16.03;;;;;;;-3.27;100.00;100695.41;10154593;29;20143;-84
2023/12/02 03:37:12;;;;;;;32.30;17.97;;;;;;;-3.23;100.00;100692.38;10157186;29;20046;-83
2023/12/02 03:42:13;;;;;;;28.07;16.70;;;;;;;-3.29;100.00;100689.22;10158922;29;20508;-83
2023/12/02 03:47:13;;;;;;;29.90;19.43;;;;;;;-3.19;100.00;100694.50;10149038;29;20411;-84
2023/12/02 03:52:14;;;;;;;29.23;17.17;;;;;;;-3.34;100.00;100701.53;10146557;29;20046;-82
2023/12/02 03:57:15;;;;;;;20.53;13.33;;;;;;;-3.34;100.00;100698.97;10162242;29;20445;-81
2023/12/02 04:02:15;;;;;;;28.53;17.50;;;;;;;-3.29;100.00;100702.91;10179695;29;20095;-83
2023/12/02 04:07:16;;;;;;;32.77;19.13;;;;;;;-3.44;100.00;100709.03;10172663;29;20170;-82
2023/12/02 04:12:16;;;;;;;28.07;16.60;;;;;;;-3.47;100.00;100713.84;10138582;29;20062;-83
2023/12/02 04:17:17;;;;;;;31.03;19.23;;;;;;;-3.54;100.00;100718.34;10155473;29;20127;-82
2023/12/02 04:22:18;;;;;;;22.90;13.80;;;;;;;-3.42;100.00;100720.34;10151911;29;20098;-82
2023/12/02 04:27:19;;;;;;;29.75;17.85;;;;;;;-3.42;100.00;100722.91;10169395;29;20040;-83
2023/12/02 04:32:19;;;;;;;32.03;18.63;;;;;;;-3.34;100.00;100731.38;10165699;29;20130;-82
2023/12/02 04:37:23;;;;;;;32.13;18.97;;;;;;;-3.38;100.00;100739.47;10165240;29;20079;-84
2023/12/02 04:42:23;;;;;;;35.35;19.90;;;;;;;-3.45;100.00;100743.97;10162869;29;20044;-83
2023/12/02 04:47:24;;;;;;;40.03;20.37;;;;;;;-3.34;100.00;100749.28;10147960;29;20044;-83
2023/12/02 04:52:24;;;;;;;39.00;20.67;;;;;;;-3.33;100.00;100746.88;10162270;29;20099;-83
2023/12/02 04:57:28;;;;;;;36.00;20.13;;;;;;;-3.37;100.00;100754.97;10164618;29;20048;-83
2023/12/02 05:02:28;;;;;;;32.28;18.17;;;;;;;-3.36;100.00;100759.34;10156825;29;20044;-83
2023/12/02 05:07:29;;;;;;;26.40;14.30;;;;;;;-3.35;100.00;100762.84;10152687;29;20484;-84
2023/12/02 05:12:29;;;;;;;37.03;23.50;;;;;;;-3.49;100.00;100772.56;10144043;29;20036;-83
2023/12/02 05:17:30;;;;;;;36.30;21.47;;;;;;;-3.49;100.00;100766.53;10149489;29;20052;-83
2023/12/02 05:22:30;;;;;;;32.27;19.60;;;;;;;-3.48;100.00;100779.50;10136892;29;20473;-83
2023/12/02 05:27:31;;;;;;;33.13;18.13;;;;;;;-3.60;100.00;100776.56;10143779;29;20048;-83
2023/12/02 05:32:31;;;;;;;32.13;19.93;;;;;;;-3.69;100.00;100774.00;10151355;29;20130;-82
2023/12/02 05:37:32;;;;;;;27.70;19.73;;;;;;;-3.81;100.00;100784.59;10156451;29;20178;-84
2023/12/02 05:42:32;;;;;;;32.47;19.90;;;;;;;-3.90;100.00;100780.34;10156203;29;20131;-83
2023/12/02 05:47:32;;;;;;;26.67;14.43;;;;;;;-3.97;100.00;100788.13;10151176;29;20419;-83
2023/12/02 05:52:33;;;;;;;36.50;20.80;;;;;;;-4.23;100.00;100795.63;10157200;29;20127;-83
2023/12/02 05:57:34;;;;;;;36.50;20.73;;;;;;;-4.40;100.00;100784.53;10151441;29;20052;-83
2023/12/02 06:02:34;;;;;;;30.70;19.03;;;;;;;-4.53;100.00;100791.66;10150970;29;20511;-83
2023/12/02 06:07:35;;;;;;;21.73;16.00;;;;;;;-4.74;100.00;100796.28;10147657;29;20058;-83
2023/12/02 06:12:35;;;;;;;36.20;19.30;;;;;;;-5.08;100.00;100800.31;10146372;29;20099;-84
2023/12/02 06:17:36;;;;;;;31.17;19.43;;;;;;;-5.38;100.00;100802.22;10141797;29;20404;-82
2023/12/02 06:22:36;;;;;;;37.73;20.00;;;;;;;-5.54;100.00;100804.72;10151490;29;20040;-83
2023/12/02 06:27:37;;;;;;;31.70;21.27;;;;;;;-5.68;100.00;100810.84;10160890;29;20143;-83
2023/12/02 06:32:37;;;;;;;38.90;23.87;;;;;;;-5.74;100.00;100825.47;10159610;29;20058;-82
2023/12/02 06:37:38;;;;;;;34.77;20.17;;;;;;;-5.76;100.00;100816.72;10156778;29;20890;-83
2023/12/02 06:42:39;;;;;;;31.53;19.23;;;;;;;-5.72;100.00;100826.53;10156135;29;20191;-82
2023/12/02 06:47:39;;;;;;;34.43;20.23;;;;;;;-5.69;100.00;100819.22;10153263;29;20131;-81
2023/12/02 06:52:40;;;;;;;37.80;23.60;;;;;;;-5.76;100.00;100829.47;10142506;29;20131;-81
2023/12/02 06:57:40;;;;;;;29.73;18.10;;;;;;;-5.94;100.00;100838.53;10154649;29;20052;-83
2023/12/02 07:02:41;;;;;;;29.70;15.90;;;;;;;-6.05;100.00;100850.09;10159427;29;20409;-82
2023/12/02 07:07:44;;;;;;;39.58;20.95;;;;;;;-6.23;100.00;100862.56;10142262;29;20084;-81
2023/12/02 07:12:45;;;;;;;37.67;22.10;;;;;;;-6.27;100.00;100879.88;10140903;29;20492;-82
2023/12/02 07:17:45;;;;;;;39.17;21.47;;;;;;;-6.35;100.00;100889.16;10154280;29;20131;-81
2023/12/02 07:22:46;;;;;;;35.93;20.90;;;;;;;-6.48;100.00;100894.50;10152181;29;20044;-81
2023/12/02 07:27:46;;;;;;;41.13;25.43;;;;;;;-6.46;100.00;100910.88;10150716;29;20130;-81
2023/12/02 07:32:47;;;;;;;34.53;23.83;;;;;;;-6.31;100.00;100911.72;10163185;29;20132;-81
2023/12/02 07:37:48;;;;;;;39.60;23.63;;;;;;;-6.26;100.00;100913.16;10136976;29;20480;-81
2023/12/02 07:42:49;;;;;;;40.85;23.73;;;;;;;-6.30;100.00;100912.66;10154046;29;20075;-82
2023/12/02 07:47:49;;;;;;;39.17;20.90;;;;;;;-6.31;100.00;100908.28;10137545;29;20051;-81
2023/12/02 07:52:50;;;;;;;44.00;25.70;;;;;;;-6.27;100.00;100916.44;10124532;29;20127;-82
2023/12/02 07:57:59;;;;;;;36.05;23.85;;;;;;;-6.26;100.00;100925.00;10147514;29;20043;-85
2023/12/02 08:03:00;;;;;;;41.87;25.17;;;;;;;-6.17;100.00;100923.50;10159578;29;20480;-85
2023/12/02 08:08:00;;;;;;;36.63;24.10;;;;;;;-6.12;100.00;100930.03;10165473;29;20044;-87
2023/12/02 08:13:03;;;;;;;43.40;22.20;;;;;;;-6.10;100.00;100920.00;10144778;29;20060;-81
2023/12/02 08:18:04;;;;;;;42.10;25.60;;;;;;;-6.08;100.00;100919.47;10165053;29;20425;-82
2023/12/02 08:23:06;;;;;;;46.03;27.63;;;;;;;-5.97;100.00;100933.38;10156305;29;20064;-87
2023/12/02 08:28:07;;;;;;;46.97;25.93;;;;;;;-5.90;100.00;100930.81;10158047;29;20099;-82
2023/12/02 08:33:07;;;;;;;40.77;21.47;;;;;;;-5.90;100.00;100946.09;10148124;29;20083;-81
2023/12/02 08:38:08;;;;;;;42.57;24.13;;;;;;;-5.78;100.00;100949.16;10147008;29;20068;-82
2023/12/02 08:43:08;;;;;;;35.40;20.53;;;;;;;-5.72;100.00;100948.94;10141791;29;20491;-81
2023/12/02 08:48:09;;;;;;;47.77;25.83;;;;;;;-5.70;100.00;100965.31;10142257;29;20036;-82
2023/12/02 08:53:10;;;;;;;34.50;22.30;;;;;;;-5.55;100.00;100967.78;10159855;29;20571;-83
2023/12/02 08:58:10;;;;;;;58.07;26.03;;;;;;;-5.48;100.00;100967.75;10143956;29;20135;-82
2023/12/02 09:03:10;;;;;;;40.60;24.13;;;;;;;-5.34;100.00;100974.41;10145462;29;20072;-81
2023/12/02 09:08:11;;;;;;;40.17;26.77;;;;;;;-5.18;100.00;100983.06;10152306;29;20032;-84
2023/12/02 09:13:46;;;;;;;45.80;24.67;;;;;;;-4.85;100.00;100994.28;10172287;29;20052;-80
2023/12/02 09:18:46;;;;;;;42.33;24.38;;;;;;;-4.53;100.00;100993.47;10148817;29;20098;-82
2023/12/02 09:23:50;;;;;;;42.53;23.27;;;;;;;-4.46;100.00;101001.97;10146391;29;20092;-80
2023/12/02 09:28:51;;;;;;;42.42;26.45;;;;;;;-4.08;100.00;100995.75;10113089;29;20044;-82
2023/12/02 09:33:57;;;;;;;35.40;22.00;;;;;;;-3.72;100.00;101002.97;10144498;29;20579;-81
2023/12/02 09:39:09;;;;;;;39.65;23.10;;;;;;;-3.59;100.00;100993.31;10119686;29;20480;-80
2023/12/02 09:44:17;;;;;;;33.40;19.02;;;;;;;-3.56;100.00;100973.16;10158082;29;20412;-84
2023/12/02 09:49:49;;;;;;;37.53;20.38;;;;;;;-3.45;100.00;100964.06;10142291;29;20077;-81
2023/12/02 09:54:56;;;;;;;39.97;21.00;;;;;;;-3.29;100.00;100958.88;10154175;29;20073;-81
2023/12/02 10:00:02;;;;;;;32.72;19.88;;;;;;;-3.12;100.00;100957.16;10130753;29;20040;-82
2023/12/02 10:05:10;;;;;;;37.35;22.80;;;;;;;-2.87;100.00;100964.81;10137405;29;20048;-82
2023/12/02 10:10:13;;;;;;;31.75;18.88;;;;;;;-2.24;100.00;100954.91;10152186;29;20045;-82
2023/12/02 10:15:16;;;;;;;29.58;17.17;;;;;;;-1.98;100.00;100951.47;10121386;29;20104;-83
2023/12/02 10:20:17;;;;;;;40.60;20.08;;;;;;;-2.37;100.00;100976.75;10162578;29;20040;-85
2023/12/02 10:25:49;;;;;;;33.83;20.80;;;;;;;-2.02;100.00;100975.00;10104924;29;20055;-82
2023/12/02 10:30:50;;;;;;;33.75;22.13;;;;;;;-1.02;100.00;100967.53;10143399;29;20111;-81
2023/12/02 10:35:51;;;;;;;33.47;17.40;;;;;;;-1.12;100.00;100997.47;10152946;29;20032;-81
2023/12/02 10:41:27;;;;;;;27.38;17.55;;;;;;;0.08;100.00;101003.41;10151052;29;20484;-80
2023/12/02 10:46:27;;;;;;;31.08;18.55;;;;;;;1.92;100.00;101022.91;10138977;29;20075;-81
2023/12/02 10:51:28;;;;;;;27.25;17.17;;;;;;;1.73;100.00;101057.47;10136837;29;20039;-80
2023/12/02 10:56:30;;;;;;;30.23;17.85;;;;;;;0.16;100.00;101059.09;10157174;29;20054;-81
2023/12/02 11:01:44;;;;;;;28.38;15.73;;;;;;;-0.84;100.00;101045.47;10160205;29;20058;-80
2023/12/02 11:06:57;;;;;;;28.25;18.13;;;;;;;-1.31;100.00;101046.13;10156003;29;20068;-79
2023/12/02 11:12:36;;;;;;;30.42;17.23;;;;;;;-1.04;100.00;101018.75;10136923;29;20762;-79
2023/12/02 11:17:39;;;;;;;26.38;17.13;;;;;;;-0.95;100.00;101022.19;10136203;29;20044;-80
2023/12/02 11:23:14;;;;;;;26.65;17.75;;;;;;;-0.53;100.00;101013.31;10142955;29;20044;-80
2023/12/02 11:28:39;;;;;;;24.70;15.80;;;;;;;0.04;100.00;101042.50;10146032;29;20151;-80
2023/12/02 11:34:11;;;;;;;22.48;15.52;;;;;;;-0.96;100.00;101053.78;10132769;29;20160;-80
2023/12/02 11:39:33;;;;;;;31.43;16.07;;;;;;;-0.85;100.00;101038.50;10143673;29;20135;-81
2023/12/02 11:44:55;;;;;;;25.20;16.85;;;;;;;-0.53;100.00;101045.81;10158805;29;20056;-81
2023/12/02 11:50:02;;;;;;;27.88;16.88;;;;;;;-0.77;100.00;101065.84;10163479;29;20071;-81
2023/12/02 11:55:42;;;;;;;29.88;19.45;;;;;;;-0.80;100.00;101048.50;10159770;29;20040;-82
2023/12/02 12:01:03;;;;;;;31.38;19.60;;;;;;;-0.64;100.00;101057.66;10153258;29;20045;-80
2023/12/02 12:06:25;;;;;;;32.53;18.50;;;;;;;-0.04;100.00;101053.00;10157982;29;20064;-83
2023/12/02 12:11:25;;;;;;;33.28;18.80;;;;;;;0.03;100.00;101063.88;10145748;29;20095;-84
2023/12/02 12:16:26;;;;;;;32.83;17.83;;;;;;;-0.19;100.00;101061.84;10136995;29;20131;-88
2023/12/02 12:21:26;;;;;;;28.65;20.33;;;;;;;-0.22;100.00;101061.56;10156698;29;20040;-88
2023/12/02 12:26:27;;;;;;;27.15;17.13;;;;;;;-0.77;100.00;101055.56;10127583;29;20048;-86
2023/12/02 12:31:29;;;;;;;29.05;18.90;;;;;;;-0.82;100.00;101057.72;10160100;29;20041;-83
2023/12/02 12:36:30;;;;;;;29.40;17.25;;;;;;;-0.87;100.00;101058.94;10161686;29;20063;-80
2023/12/02 12:41:31;;;;;;;26.87;18.30;;;;;;;-0.48;100.00;101062.59;10138971;29;20054;-80
2023/12/02 12:46:31;;;;;;;25.20;15.68;;;;;;;-0.05;100.00;101058.91;10124722;29;20049;-81
2023/12/02 12:51:33;;;;;;;25.60;18.15;;;;;;;0.65;100.00;101067.84;10151065;29;20040;-80
2023/12/02 12:56:55;;;;;;;29.90;18.70;;;;;;;0.41;100.00;101076.78;10154124;29;20055;-82
2023/12/02 13:02:04;;;;;;;26.80;16.90;;;;;;;-0.25;100.00;101076.72;10143818;29;20051;-81
2023/12/02 13:07:10;;;;;;;28.90;17.20;;;;;;;-0.52;100.00;101074.25;10130689;29;20374;-81
2023/12/02 13:12:14;;;;;;;30.52;18.58;;;;;;;-0.50;100.00;101071.81;10159466;29;20067;-82
2023/12/02 13:17:14;;;;;;;31.55;19.70;;;;;;;-0.79;100.00;101075.06;10146091;29;20079;-82
2023/12/02 13:22:16;;;;;;;26.17;17.70;;;;;;;-0.80;100.00;101073.25;10153903;29;20458;-86
2023/12/02 13:27:36;;;;;;;28.45;18.88;;;;;;;-0.72;100.00;101079.16;10135764;29;20036;-84
2023/12/02 13:32:44;;;;;;;36.67;20.27;;;;;;;-0.40;100.00;101082.22;10160203;29;20044;-81
2023/12/02 13:37:56;;;;;;;28.38;19.75;;;;;;;0.47;100.00;101072.19;10155683;29;20054;-83
2023/12/02 13:42:57;;;;;;;35.83;21.00;;;;;;;0.45;100.00;101090.88;10159764;29;20040;-82
2023/12/02 13:48:01;;;;;;;36.92;18.92;;;;;;;0.22;100.00;101098.25;10139108;29;20135;-81
2023/12/02 13:53:18;;;;;;;36.75;19.70;;;;;;;0.02;100.00;101098.09;10155051;29;20036;-84
2023/12/02 13:58:20;;;;;;;35.38;21.95;;;;;;;0.02;100.00;101108.38;10132743;29;20416;-86
2023/12/02 14:03:33;;;;;;;34.33;22.98;;;;;;;-0.23;100.00;101114.69;10158353;29;20048;-86
2023/12/02 14:08:34;;;;;;;36.65;21.17;;;;;;;-0.54;100.00;101119.50;10155646;29;20048;-84
2023/12/02 14:13:49;;;;;;;39.30;21.50;;;;;;;-0.66;100.00;101121.78;10147454;29;20480;-86
2023/12/02 14:19:07;;;;;;;35.35;23.08;;;;;;;-0.41;100.00;101120.66;10131502;29;20488;-89
2023/12/02 14:24:32;;;;;;;36.08;23.65;;;;;;;-0.23;100.00;101125.00;10141871;29;20044;-90
2023/12/02 14:29:51;;;;;;;40.17;22.55;;;;;;;-0.30;100.00;101148.31;10142397;29;20044;-84
2023/12/02 14:34:54;;;;;;;38.53;24.33;;;;;;;-0.32;100.00;101155.88;10144695;29;20048;-88
2023/12/02 14:40:23;;;;;;;35.30;25.45;;;;;;;-0.23;100.00;101153.28;10157037;29;20103;-81
2023/12/02 14:45:23;;;;;;;31.50;21.38;;;;;;;-0.38;100.00;101149.25;10138359;29;20071;-82
2023/12/02 14:50:24;;;;;;;37.17;25.08;;;;;;;-0.52;100.00;101155.63;10156924;29;20044;-84
2023/12/02 14:55:31;;;;;;;37.63;21.23;;;;;;;-0.68;100.00;101159.28;10147667;29;20044;-84
2023/12/02 15:00:31;;;;;;;35.97;23.13;;;;;;;-0.89;100.00;101171.84;10128957;29;20048;-89
2023/12/02 15:05:32;;;;;;;45.27;24.77;;;;;;;-1.08;100.00;101174.28;10136670;29;20058;-81
2023/12/02 15:10:32;;;;;;;40.27;23.87;;;;;;;-1.19;100.00;101178.34;10122261;29;20083;-88
2023/12/02 15:15:33;;;;;;;35.08;22.95;;;;;;;-1.21;100.00;101179.84;10139281;29;20465;-80
2023/12/02 15:20:33;;;;;;;41.05;23.95;;;;;;;-1.19;100.00;101191.19;10159258;29;20050;-82
2023/12/02 15:25:34;;;;;;;41.67;25.47;;;;;;;-1.25;100.00;101202.50;10143234;29;20052;-80
2023/12/02 15:30:34;;;;;;;61.20;28.30;;;;;;;-1.32;100.00;101216.38;10142966;29;20420;-86
2023/12/02 15:35:35;;;;;;;44.10;24.97;;;;;;;-1.36;100.00;101232.25;10158283;29;20050;-83
2023/12/02 15:40:35;;;;;;;39.30;22.83;;;;;;;-1.34;100.00;101233.31;10141891;29;20139;-86
2023/12/02 15:45:36;;;;;;;42.50;24.87;;;;;;;-1.37;100.00;101231.34;10140520;29;20127;-83
2023/12/02 15:50:36;;;;;;;43.83;25.07;;;;;;;-1.45;100.00;101233.88;10156308;29;20153;-84
2023/12/02 15:55:37;;;;;;;45.43;28.83;;;;;;;-1.45;100.00;101244.16;10158193;29;20055;-88
2023/12/02 16:00:39;;;;;;;38.33;24.17;;;;;;;-1.46;100.00;101248.38;10156296;29;20058;-81
2023/12/02 16:05:39;;;;;;;41.97;27.42;;;;;;;-1.50;100.00;101248.84;10141481;29;20075;-87
2023/12/02 16:10:40;;;;;;;45.43;27.47;;;;;;;-1.58;100.00;101253.16;10140204;29;20376;-89
2023/12/02 16:15:41;;;;;;;39.47;25.50;;;;;;;-1.56;100.00;101256.78;10158255;29;20070;-87
2023/12/02 16:20:41;;;;;;;48.07;25.30;;;;;;;-1.69;100.00;101267.47;10143239;29;20044;-89
2023/12/02 16:25:42;;;;;;;30.43;19.13;;;;;;;-1.61;100.00;101264.78;10140646;29;20042;-89
2023/12/02 16:30:42;;;;;;;46.53;24.87;;;;;;;-1.59;100.00;101263.28;10163523;29;20126;-88
2023/12/02 16:35:43;;;;;;;43.65;23.77;;;;;;;-1.59;100.00;101277.03;10165534;29;20393;-88
2023/12/02 16:40:49;;;;;;;34.17;22.17;;;;;;;-1.66;100.00;101279.69;10163325;29;20173;-88
2023/12/02 16:45:55;;;;;;;46.63;25.10;;;;;;;-1.59;100.00;101287.28;10132262;29;20044;-88
2023/12/02 16:50:56;;;;;;;37.83;22.92;;;;;;;-1.63;100.00;101291.22;10164460;29;20055;-84
2023/12/02 16:55:57;;;;;;;40.90;24.77;;;;;;;-1.67;100.00;101294.22;10162797;29;20050;-86
2023/12/02 17:01:01;;;;;;;38.10;23.47;;;;;;;-1.70;100.00;101300.66;10135715;29;20040;-84
2023/12/02 17:06:12;;;;;;;38.83;23.20;;;;;;;-1.70;100.00;101300.66;10162949;29;20052;-84
2023/12/02 17:11:14;;;;;;;38.67;22.90;;;;;;;-1.73;100.00;101303.84;10163559;29;20039;-87
2023/12/02 17:16:51;;;;;;;36.92;20.65;;;;;;;-1.75;100.00;101305.34;10147858;29;20052;-86
2023/12/02 17:21:53;;;;;;;48.60;26.35;;;;;;;-1.71;100.00;101299.78;10163017;29;20108;-85
2023/12/02 17:26:53;;;;;;;37.90;22.80;;;;;;;-1.71;100.00;101317.75;10146838;29;20087;-89
2023/12/02 17:31:54;;;;;;;38.00;22.80;;;;;;;-1.63;100.00;101321.09;10146376;29;20099;-90
2023/12/02 17:36:55;;;;;;;31.73;20.43;;;;;;;-1.61;100.00;101322.16;10162284;29;20040;-91
2023/12/02 17:41:56;;;;;;;42.43;23.93;;;;;;;-1.66;100.00;101318.22;10130351;29;20051;-90
2023/12/02 17:46:57;;;;;;;42.90;22.67;;;;;;;-1.65;100.00;101322.59;10144262;29;20063;-88
2023/12/02 17:51:57;;;;;;;42.13;26.23;;;;;;;-1.64;100.00;101314.13;10164828;29;20059;-92
2023/12/02 17:56:58;;;;;;;45.20;23.30;;;;;;;-1.66;100.00;101315.63;10161375;29;20135;-87
2023/12/02 18:01:58;;;;;;;44.83;24.07;;;;;;;-1.65;100.00;101322.59;10160586;29;20374;-87
2023/12/02 18:06:59;;;;;;;42.83;24.07;;;;;;;-1.65;100.00;101308.13;10144811;29;20075;-87
2023/12/02 18:12:00;;;;;;;41.80;25.77;;;;;;;-1.57;100.00;101315.69;10162625;29;20056;-87
2023/12/02 18:17:01;;;;;;;37.53;25.10;;;;;;;-1.63;100.00;101332.28;10161192;29;20040;-87
2023/12/02 18:22:03;;;;;;;39.03;24.37;;;;;;;-1.71;100.00;101334.78;10160683;29;20092;-84
2023/12/02 18:27:04;;;;;;;41.55;25.40;;;;;;;-1.74;100.00;101344.72;10160579;29;20040;-84
2023/12/02 18:32:05;;;;;;;40.87;23.77;;;;;;;-1.71;100.00;101334.78;10159192;29;20127;-87
2023/12/02 18:37:05;;;;;;;44.50;25.90;;;;;;;-1.65;100.00;101335.44;10159976;29;20559;-87
2023/12/02 18:42:06;;;;;;;46.67;24.07;;;;;;;-1.79;100.00;101349.41;10143741;29;20303;-88
2023/12/02 18:47:07;;;;;;;51.60;25.07;;;;;;;-1.80;100.00;101343.34;10143840;29;20071;-89
2023/12/02 18:52:07;;;;;;;53.87;27.73;;;;;;;-1.75;100.00;101342.91;10141964;29;20055;-89
2023/12/02 18:57:07;;;;;;;40.03;24.13;;;;;;;-1.78;100.00;101351.22;10159935;29;20131;-90
2023/12/02 19:02:08;;;;;;;47.00;25.87;;;;;;;-1.87;100.00;101355.38;10160555;29;20123;-89
2023/12/02 19:07:09;;;;;;;39.03;25.23;;;;;;;-1.94;100.00;101352.19;10159131;29;20604;-87
2023/12/02 19:12:09;;;;;;;54.77;29.03;;;;;;;-2.08;100.00;101368.66;10159054;29;20040;-87
2023/12/02 19:17:11;;;;;;;48.20;27.67;;;;;;;-2.10;100.00;101366.69;10142787;29;20135;-88
2023/12/02 19:22:11;;;;;;;44.90;26.67;;;;;;;-2.05;100.00;101364.59;10160823;29;20044;-88
2023/12/02 19:27:13;;;;;;;50.67;26.10;;;;;;;-2.09;100.00;101358.25;10158827;29;20040;-88
2023/12/02 19:32:13;;;;;;;49.05;26.58;;;;;;;-2.17;100.00;101364.22;10164883;29;20047;-87
2023/12/02 19:37:14;;;;;;;51.33;29.87;;;;;;;-2.15;100.00;101371.31;10161524;29;20051;-87
2023/12/02 19:42:14;;;;;;;45.17;28.07;;;;;;;-2.12;100.00;101370.75;10157808;29;20140;-87
2023/12/02 19:47:15;;;;;;;53.53;30.80;;;;;;;-2.13;100.00;101368.94;10158709;29;20084;-87
2023/12/02 19:52:15;;;;;;;40.93;27.20;;;;;;;-2.07;100.00;101369.59;10158104;29;20103;-86
2023/12/02 19:57:16;;;;;;;50.87;29.53;;;;;;;-1.99;100.00;101367.81;10160003;29;20118;-87
2023/12/02 20:02:16;;;;;;;51.67;31.27;;;;;;;-1.95;100.00;101378.59;10163128;29;20032;-88
2023/12/02 20:07:17;;;;;;;52.13;30.33;;;;;;;-1.92;100.00;101383.09;10167080;29;20119;-89
2023/12/02 20:12:17;;;;;;;51.20;28.20;;;;;;;-1.88;100.00;101390.38;10165648;29;20050;-88
2023/12/02 20:17:18;;;;;;;45.07;26.43;;;;;;;-1.99;100.00;101390.91;10166354;29;20040;-88
2023/12/02 20:22:19;;;;;;;48.10;29.67;;;;;;;-2.10;100.00;101400.03;10150123;29;20049;-87
2023/12/02 20:27:19;;;;;;;43.87;24.93;;;;;;;-2.03;100.00;101402.50;10167330;29;20409;-89
2023/12/02 20:32:20;;;;;;;32.43;19.27;;;;;;;-1.93;100.00;101402.75;10164558;29;20131;-87
2023/12/02 20:37:20;;;;;;;43.47;26.87;;;;;;;-2.08;100.00;101409.69;10147952;29;20040;-85
2023/12/02 20:42:21;;;;;;;47.53;27.80;;;;;;;-2.20;100.00;101404.94;10166545;29;20132;-89
2023/12/02 20:47:22;;;;;;;52.13;30.97;;;;;;;-2.33;100.00;101413.88;10149110;29;20521;-89
2023/12/02 20:52:22;;;;;;;50.93;30.07;;;;;;;-2.35;100.00;101420.47;10164652;29;20115;-89
2023/12/02 20:57:23;;;;;;;49.47;28.13;;;;;;;-2.40;100.00;101422.53;10165268;29;20032;-89
2023/12/02 21:02:23;;;;;;;46.97;32.37;;;;;;;-2.45;100.00;101428.81;10166091;29;20046;-88
2023/12/02 21:07:24;;;;;;;40.40;22.97;;;;;;;-2.35;100.00;101430.75;10162633;29;20127;-89
2023/12/02 21:12:25;;;;;;;53.80;31.10;;;;;;;-2.40;100.00;101422.53;10161562;29;20036;-88
2023/12/02 21:17:25;;;;;;;35.63;22.17;;;;;;;-2.47;100.00;101421.72;10147650;29;20067;-88
2023/12/02 21:22:29;;;;;;;56.13;33.07;;;;;;;-2.54;100.00;101423.63;10155558;29;20106;-88
2023/12/02 21:27:30;;;;;;;62.05;32.22;;;;;;;-2.64;100.00;101422.44;10136402;29;20044;-88
2023/12/02 21:32:31;;;;;;;61.37;34.20;;;;;;;-2.76;100.00;101419.44;10171928;29;20139;-86
2023/12/02 21:37:33;;;;;;;65.15;35.63;;;;;;;-2.85;100.00;101422.81;10138785;29;20044;-92
2023/12/02 21:42:34;;;;;;;58.72;33.88;;;;;;;-3.00;100.00;101432.28;10143832;29;20092;-87
2023/12/02 21:47:35;;;;;;;59.60;34.10;;;;;;;-2.97;100.00;101435.19;10157955;29;20505;-87
2023/12/02 21:52:36;;;;;;;67.80;34.50;;;;;;;-2.95;100.00;101443.94;10143754;29;20187;-87
2023/12/02 21:57:36;;;;;;;61.63;34.97;;;;;;;-3.08;100.00;101451.00;10175820;29;20048;-88
2023/12/02 22:02:37;;;;;;;60.67;36.07;;;;;;;-3.05;100.00;101453.00;10164889;29;20063;-89
2023/12/02 22:07:38;;;;;;;50.97;33.07;;;;;;;-3.08;100.00;101456.13;10128954;29;20036;-89
2023/12/02 22:12:40;;;;;;;44.10;27.83;;;;;;;-3.07;100.00;101463.06;10163064;29;20032;-89
2023/12/02 22:17:40;;;;;;;67.15;35.88;;;;;;;-2.86;100.00;101458.50;10160420;29;20066;-89
2023/12/02 22:22:53;;;;;;;58.77;36.03;;;;;;;-2.70;100.00;101461.13;10162869;29;20043;-89
2023/12/02 22:27:58;;;;;;;64.05;33.53;;;;;;;-2.66;100.00;101464.19;10159315;29;20037;-89